Time;durP1;ratioP1;P1;durP2;ratioP2;P2;SDS_P1;SDS_P2;PMS_P1;PMS_P2;Temp;Humidity;BMP_temperature;BMP_pressure;BME280_temperature;BME280_humidity;BME280_pressure;Samples;Min_cycle;Max_cycle;Signal;HPM_P1;HPM_P2
2023/06/11 00:01:01;;;;;;;8.55;5.50;;;;;;;28.53;36.62;101176.06;5015738;28;20018;-59
2023/06/11 00:03:27;;;;;;;6.55;4.75;;;;;;;28.48;36.49;101175.94;5016018;28;20029;-59
2023/06/11 00:05:52;;;;;;;8.07;5.32;;;;;;;28.45;36.18;101175.63;5030944;28;20026;-59
2023/06/11 00:08:18;;;;;;;8.95;4.95;;;;;;;28.41;35.86;101186.28;5015889;28;20036;-59
2023/06/11 00:10:43;;;;;;;6.30;5.03;;;;;;;28.33;36.42;101188.53;5014378;28;20470;-59
2023/06/11 00:13:09;;;;;;;8.00;4.60;;;;;;;28.24;37.21;101183.38;5015907;28;20021;-59
2023/06/11 00:15:34;;;;;;;7.70;4.97;;;;;;;28.16;36.59;101186.47;5030862;28;20037;-58
2023/06/11 00:18:01;;;;;;;9.48;5.35;;;;;;;28.08;37.40;101184.06;5015696;28;20032;-59
2023/06/11 00:20:27;;;;;;;8.50;5.18;;;;;;;28.01;36.46;101188.78;5014644;28;20057;-59
2023/06/11 00:22:53;;;;;;;6.82;5.25;;;;;;;27.92;36.53;101179.16;5014323;28;20486;-58
2023/06/11 00:25:18;;;;;;;7.32;5.20;;;;;;;27.88;37.37;101182.63;5015662;28;20064;-59
2023/06/11 00:27:43;;;;;;;7.05;5.13;;;;;;;27.79;37.32;101176.59;5015609;28;20454;-58
2023/06/11 00:30:09;;;;;;;7.45;5.03;;;;;;;27.48;37.16;101130.03;5015282;28;20105;-59
2023/06/11 00:32:38;;;;;;;6.45;4.72;;;;;;;27.67;37.16;101170.19;5016694;28;20029;-58
2023/06/11 00:35:08;;;;;;;9.85;5.25;;;;;;;27.49;38.06;101148.22;5015627;28;20028;-59
2023/06/11 00:37:35;;;;;;;10.68;5.20;;;;;;;27.57;38.00;101165.25;5015464;28;20021;-59
2023/06/11 00:40:01;;;;;;;6.88;5.07;;;;;;;27.58;37.84;101166.09;5015000;28;20022;-59
2023/06/11 00:42:27;;;;;;;8.05;5.45;;;;;;;27.54;37.76;101175.88;5015243;28;20026;-59
2023/06/11 00:44:54;;;;;;;8.18;5.68;;;;;;;27.50;37.86;101175.50;5015280;28;20022;-58
2023/06/11 00:47:19;;;;;;;6.88;4.95;;;;;;;27.43;37.84;101176.66;5015272;28;20164;-58
2023/06/11 00:49:45;;;;;;;6.20;5.15;;;;;;;27.37;37.98;101177.56;5015234;28;20109;-59
2023/06/11 00:52:14;;;;;;;7.22;4.70;;;;;;;27.33;37.79;101174.41;5013839;28;20083;-59
2023/06/11 00:54:40;;;;;;;8.30;5.22;;;;;;;27.29;38.27;101173.22;5014649;28;20509;-58
2023/06/11 00:57:06;;;;;;;6.65;5.25;;;;;;;27.24;38.47;101170.31;5013542;28;20117;-59
2023/06/11 00:59:34;;;;;;;10.45;4.78;;;;;;;27.21;37.90;101173.53;5015777;28;20022;-59
2023/06/11 01:02:17;;;;;;;9.68;5.68;;;;;;;27.14;38.68;101176.34;5015926;28;20491;-58
2023/06/11 01:04:43;;;;;;;9.32;5.47;;;;;;;27.10;38.37;101169.63;5013754;28;20057;-58
2023/06/11 01:07:10;;;;;;;6.55;5.38;;;;;;;27.06;38.16;101179.41;5013376;28;20079;-58
2023/06/11 01:09:36;;;;;;;6.50;5.15;;;;;;;27.01;38.95;101173.75;5013290;28;20069;-60
2023/06/11 01:12:02;;;;;;;10.05;5.90;;;;;;;26.99;38.52;101175.91;5013269;28;20022;-58
2023/06/11 01:14:27;;;;;;;11.23;5.70;;;;;;;26.97;38.36;101169.75;5014888;28;20029;-58
2023/06/11 01:17:02;;;;;;;8.15;6.05;;;;;;;26.97;38.89;101174.41;5014458;28;20026;-58
2023/06/11 01:19:37;;;;;;;11.18;5.10;;;;;;;26.93;38.40;101174.06;5014846;28;20041;-58
2023/06/11 01:22:13;;;;;;;6.97;5.05;;;;;;;26.91;38.52;101176.16;5014301;28;20099;-59
2023/06/11 01:24:58;;;;;;;7.15;5.63;;;;;;;26.88;38.58;101176.66;5014467;28;20172;-59
2023/06/11 01:27:46;;;;;;;11.10;6.15;;;;;;;26.74;39.00;101163.22;5014162;28;20037;-58
2023/06/11 01:30:21;;;;;;;7.45;5.78;;;;;;;26.83;38.83;101181.97;5014393;28;20477;-58
2023/06/11 01:32:53;;;;;;;7.80;5.55;;;;;;;26.82;39.15;101177.56;5013823;28;20029;-58
2023/06/11 01:35:18;;;;;;;12.57;5.40;;;;;;;26.81;38.99;101186.88;5029287;28;20033;-58
2023/06/11 01:37:45;;;;;;;7.40;5.43;;;;;;;26.67;39.09;101163.28;5014061;28;20034;-58
2023/06/11 01:40:14;;;;;;;6.90;5.45;;;;;;;26.79;39.31;101186.25;5015045;28;20025;-58
2023/06/11 01:42:40;;;;;;;8.18;4.80;;;;;;;26.61;38.54;101159.53;5014617;28;20026;-58
2023/06/11 01:45:06;;;;;;;13.10;5.72;;;;;;;26.75;39.03;101193.22;5013955;28;20061;-59
2023/06/11 01:47:32;;;;;;;8.02;5.40;;;;;;;26.72;39.05;101188.19;5014333;28;20111;-59
2023/06/11 01:49:57;;;;;;;8.15;5.60;;;;;;;26.69;38.91;101185.88;5014203;28;20076;-59
2023/06/11 01:52:24;;;;;;;7.50;5.97;;;;;;;26.66;38.72;101183.63;5013932;28;20401;-59
2023/06/11 01:54:50;;;;;;;11.05;6.13;;;;;;;26.64;39.27;101174.72;5014115;28;20037;-58
2023/06/11 01:57:15;;;;;;;8.35;5.80;;;;;;;26.62;38.93;101182.38;5014262;28;20022;-59
2023/06/11 01:59:41;;;;;;;6.88;5.40;;;;;;;26.60;39.33;101179.00;5014001;28;20109;-59
2023/06/11 02:02:06;;;;;;;11.65;5.72;;;;;;;26.57;39.44;101176.72;5014030;28;20037;-58
2023/06/11 02:04:31;;;;;;;7.07;5.13;;;;;;;26.55;38.83;101178.81;5013634;28;20395;-58
2023/06/11 02:06:57;;;;;;;7.97;5.03;;;;;;;26.50;39.36;101173.16;5014415;28;20030;-58
2023/06/11 02:09:22;;;;;;;6.95;5.65;;;;;;;26.44;39.43;101180.41;5012287;28;20463;-58
2023/06/11 02:11:48;;;;;;;7.68;5.97;;;;;;;26.36;39.31;101180.69;5013788;28;20054;-58
2023/06/11 02:14:13;;;;;;;7.07;5.18;;;;;;;26.31;39.52;101182.41;5013522;28;20018;-58
2023/06/11 02:16:38;;;;;;;8.60;5.90;;;;;;;26.24;39.12;101176.16;5014068;28;20029;-58
2023/06/11 02:19:04;;;;;;;7.70;5.80;;;;;;;26.20;39.12;101183.13;5013972;28;20044;-58
2023/06/11 02:21:30;;;;;;;7.50;6.13;;;;;;;26.14;39.32;101186.78;5013370;28;20026;-59
2023/06/11 02:23:55;;;;;;;8.68;6.00;;;;;;;26.09;39.46;101181.06;5013783;28;20460;-59
2023/06/11 02:26:21;;;;;;;6.72;5.40;;;;;;;26.03;39.56;101174.56;5013686;28;20025;-58
2023/06/11 02:28:47;;;;;;;9.00;5.97;;;;;;;25.97;39.48;101176.31;5013667;28;20026;-59
2023/06/11 02:31:12;;;;;;;8.68;5.85;;;;;;;25.93;39.37;101172.31;5013652;28;20367;-58
2023/06/11 02:33:37;;;;;;;8.07;5.40;;;;;;;25.73;39.57;101152.38;5013496;28;20037;-58
2023/06/11 02:36:03;;;;;;;10.52;5.15;;;;;;;25.86;39.67;101190.72;5014294;28;20036;-58
2023/06/11 02:38:28;;;;;;;9.15;5.40;;;;;;;25.81;39.81;101179.56;5012327;28;20450;-59
2023/06/11 02:40:54;;;;;;;7.63;5.68;;;;;;;25.80;39.88;101182.53;5013374;28;20180;-58
2023/06/11 02:43:19;;;;;;;7.90;5.32;;;;;;;25.64;40.01;101156.44;5013173;28;20025;-58
2023/06/11 02:45:44;;;;;;;8.40;6.45;;;;;;;25.74;39.99;101172.44;5015319;28;20045;-58
2023/06/11 02:48:10;;;;;;;7.30;5.63;;;;;;;25.67;39.97;101175.22;5017139;28;20036;-58
2023/06/11 02:50:35;;;;;;;8.70;5.90;;;;;;;25.70;40.30;101183.03;5016111;28;20022;-58
2023/06/11 02:53:00;;;;;;;8.10;5.03;;;;;;;25.69;40.56;101177.72;5017095;28;20441;-58
2023/06/11 02:55:26;;;;;;;8.88;6.45;;;;;;;25.69;40.03;101174.97;5017094;28;20060;-58
2023/06/11 02:57:51;;;;;;;8.82;5.43;;;;;;;25.69;39.68;101175.84;5017195;28;20021;-58
2023/06/11 03:00:17;;;;;;;7.15;5.93;;;;;;;25.66;40.16;101176.28;5015692;28;20022;-58
2023/06/11 03:02:42;;;;;;;8.00;5.22;;;;;;;25.70;40.62;101184.91;5016863;28;20030;-59
2023/06/11 03:05:08;;;;;;;7.82;6.07;;;;;;;25.69;40.39;101180.47;5015632;28;20116;-59
2023/06/11 03:07:33;;;;;;;6.25;4.60;;;;;;;25.68;40.27;101174.16;5016830;28;20029;-58
2023/06/11 03:09:58;;;;;;;11.63;6.25;;;;;;;25.67;40.42;101177.13;5016931;28;20044;-58
2023/06/11 03:12:24;;;;;;;8.23;5.53;;;;;;;25.66;40.56;101181.75;5015369;28;20200;-58
2023/06/11 03:14:49;;;;;;;5.78;4.95;;;;;;;25.67;40.75;101183.47;5015310;28;20026;-58
2023/06/11 03:17:15;;;;;;;9.95;5.85;;;;;;;25.67;40.67;101179.88;5016742;28;20104;-59
2023/06/11 03:19:40;;;;;;;10.05;5.47;;;;;;;25.65;40.75;101182.84;5016844;28;20073;-58
2023/06/11 03:22:06;;;;;;;8.63;5.38;;;;;;;25.62;40.42;101188.75;5016793;28;20029;-58
2023/06/11 03:24:31;;;;;;;7.80;4.80;;;;;;;25.61;40.79;101184.31;5031639;28;20120;-59
2023/06/11 03:26:56;;;;;;;12.40;5.95;;;;;;;25.62;41.00;101187.91;5016792;28;20022;-58
2023/06/11 03:29:22;;;;;;;7.35;5.70;;;;;;;25.59;41.26;101180.13;5016766;28;20112;-58
2023/06/11 03:31:47;;;;;;;16.10;5.25;;;;;;;25.57;41.05;101183.09;5031476;28;20105;-58
2023/06/11 03:34:12;;;;;;;7.57;4.82;;;;;;;25.58;41.22;101189.41;5016733;28;20026;-59
2023/06/11 03:36:38;;;;;;;7.32;5.45;;;;;;;25.55;41.37;101185.19;5016601;28;20370;-58
2023/06/11 03:39:03;;;;;;;9.45;5.25;;;;;;;25.51;41.49;101183.97;5016201;28;20052;-59
2023/06/11 03:41:29;;;;;;;7.88;4.82;;;;;;;25.53;41.64;101190.06;5016080;28;20025;-58
2023/06/11 03:43:54;;;;;;;6.68;4.68;;;;;;;25.55;41.26;101185.19;5016195;28;20026;-58
2023/06/11 03:46:21;;;;;;;9.65;5.63;;;;;;;25.56;41.02;101181.41;5016043;28;20042;-59
2023/06/11 03:48:47;;;;;;;7.50;4.38;;;;;;;25.58;41.23;101190.25;5016047;28;20407;-58
2023/06/11 03:51:13;;;;;;;10.32;4.88;;;;;;;25.57;41.39;101196.81;5016217;28;20022;-58
2023/06/11 03:53:38;;;;;;;9.90;5.03;;;;;;;25.59;41.48;101194.69;5016284;28;20029;-59
2023/06/11 03:56:04;;;;;;;6.53;4.82;;;;;;;25.59;41.10;101200.19;5015311;28;20371;-58
2023/06/11 03:58:29;;;;;;;7.85;4.97;;;;;;;25.46;41.48;101173.59;5016515;28;20053;-58
2023/06/11 04:00:55;;;;;;;8.10;4.95;;;;;;;25.61;41.34;101195.31;5016096;28;20397;-58
2023/06/11 04:03:20;;;;;;;7.97;4.72;;;;;;;25.61;41.68;101192.56;5031354;28;20037;-58
2023/06/11 04:05:45;;;;;;;6.97;4.68;;;;;;;25.64;41.06;101194.88;5031588;28;20033;-58
2023/06/11 04:08:11;;;;;;;5.88;4.82;;;;;;;25.66;41.57;101189.16;5015964;28;20164;-58
2023/06/11 04:10:36;;;;;;;8.27;5.20;;;;;;;25.70;41.75;101193.16;5031101;28;20026;-58
2023/06/11 04:13:02;;;;;;;6.97;4.68;;;;;;;25.73;41.24;101192.72;5016307;28;20026;-59
2023/06/11 04:15:27;;;;;;;4.88;4.32;;;;;;;25.73;41.43;101193.56;5015631;28;20056;-58
2023/06/11 04:17:52;;;;;;;6.95;4.25;;;;;;;25.76;41.59;101193.13;5014223;28;20045;-59
2023/06/11 04:20:18;;;;;;;8.90;4.57;;;;;;;25.81;41.27;101196.03;5015606;28;20026;-58
2023/06/11 04:22:43;;;;;;;6.53;4.47;;;;;;;25.59;41.42;101147.19;5015377;28;20026;-59
2023/06/11 04:25:09;;;;;;;5.53;4.22;;;;;;;25.82;41.64;101186.75;5015419;28;20053;-59
2023/06/11 04:27:36;;;;;;;8.93;5.10;;;;;;;25.88;41.71;101196.84;5015465;28;20030;-58
2023/06/11 04:30:03;;;;;;;8.32;4.90;;;;;;;25.90;41.01;101193.88;5015668;28;20026;-58
2023/06/11 04:32:34;;;;;;;5.82;5.00;;;;;;;25.96;41.47;101188.34;5015459;28;20026;-58
2023/06/11 04:35:02;;;;;;;7.57;4.82;;;;;;;26.03;41.56;101191.03;5015398;28;20137;-58
2023/06/11 04:37:29;;;;;;;6.60;5.10;;;;;;;26.11;41.61;101195.41;5015374;28;20032;-58
2023/06/11 04:39:56;;;;;;;5.80;4.88;;;;;;;26.18;41.43;101182.53;5030399;28;20037;-58
2023/06/11 04:42:24;;;;;;;7.25;5.18;;;;;;;26.25;41.34;101186.06;5030495;28;20092;-59
2023/06/11 04:44:50;;;;;;;8.32;5.35;;;;;;;26.25;41.09;101167.66;5014695;28;20512;-58
2023/06/11 04:47:16;;;;;;;9.45;4.60;;;;;;;26.39;41.61;101193.97;5015247;28;20105;-58
2023/06/11 04:49:44;;;;;;;9.85;5.22;;;;;;;26.47;41.55;101195.59;5015130;28;20097;-58
2023/06/11 04:52:09;;;;;;;6.10;4.60;;;;;;;26.56;40.88;101191.50;5015022;28;20034;-59
2023/06/11 04:54:34;;;;;;;5.72;5.05;;;;;;;26.67;41.06;101195.41;5015050;28;20083;-58
2023/06/11 04:57:00;;;;;;;9.90;4.40;;;;;;;26.75;40.53;101195.97;5014947;28;20065;-58
2023/06/11 04:59:26;;;;;;;8.48;5.03;;;;;;;26.84;41.03;101197.41;5015557;28;20025;-58
2023/06/11 05:01:53;;;;;;;7.85;5.68;;;;;;;26.94;41.49;101192.22;5015792;28;20041;-58
2023/06/11 05:04:19;;;;;;;7.88;6.07;;;;;;;27.03;41.40;101201.00;5014873;28;20394;-58
2023/06/11 05:06:45;;;;;;;5.00;4.32;;;;;;;27.12;41.28;101195.00;5013657;28;20029;-58
2023/06/11 05:09:14;;;;;;;8.02;5.15;;;;;;;27.19;40.67;101200.44;5014717;28;20037;-59
2023/06/11 05:11:43;;;;;;;6.40;4.68;;;;;;;27.28;40.79;101209.19;5014676;28;20037;-59
2023/06/11 05:14:10;;;;;;;6.50;4.88;;;;;;;27.34;40.67;101205.53;5014404;28;20021;-58
2023/06/11 05:16:35;;;;;;;7.97;4.90;;;;;;;27.39;40.46;101216.69;5014453;28;20473;-59
2023/06/11 05:19:01;;;;;;;9.63;5.25;;;;;;;27.47;40.27;101214.50;5014822;28;20052;-59
2023/06/11 05:21:27;;;;;;;8.43;4.63;;;;;;;27.54;40.44;101214.44;5014317;28;20034;-59
2023/06/11 05:23:53;;;;;;;7.88;5.32;;;;;;;27.60;41.28;101216.25;5014575;28;20026;-59
2023/06/11 05:26:35;;;;;;;5.32;4.68;;;;;;;27.66;41.14;101212.59;5014422;28;20021;-58
2023/06/11 05:29:01;;;;;;;8.43;5.22;;;;;;;27.80;40.98;101213.25;5013017;28;20022;-59
2023/06/11 05:31:29;;;;;;;11.85;5.13;;;;;;;27.92;41.20;101223.22;5014295;28;20116;-59
2023/06/11 05:33:55;;;;;;;6.57;5.28;;;;;;;28.04;39.96;101226.91;5014442;28;20022;-59
2023/06/11 05:36:21;;;;;;;7.28;4.95;;;;;;;28.17;40.38;101221.19;5014390;28;20022;-58
2023/06/11 05:38:46;;;;;;;7.45;5.13;;;;;;;28.31;40.25;101216.31;5014270;28;20029;-60
2023/06/11 05:41:12;;;;;;;6.03;4.85;;;;;;;28.44;40.68;101226.31;5014235;28;20105;-58
2023/06/11 05:43:37;;;;;;;8.48;4.32;;;;;;;28.58;39.62;101227.75;5014254;28;20026;-58
2023/06/11 05:46:03;;;;;;;5.25;4.75;;;;;;;28.72;40.44;101220.97;5013943;28;20136;-59
2023/06/11 05:48:28;;;;;;;8.27;4.53;;;;;;;28.83;39.74;101226.50;5014148;28;20478;-59
2023/06/11 05:50:54;;;;;;;6.82;4.55;;;;;;;28.94;39.80;101221.22;5014285;28;20018;-60
2023/06/11 05:53:20;;;;;;;5.93;4.55;;;;;;;29.07;39.10;101226.47;5014391;28;20029;-58
2023/06/11 05:55:45;;;;;;;5.78;5.18;;;;;;;29.21;39.51;101227.91;5013993;28;20025;-58
2023/06/11 05:58:10;;;;;;;10.00;5.30;;;;;;;29.30;39.38;101226.50;5014080;28;20493;-58
2023/06/11 06:00:36;;;;;;;7.30;4.88;;;;;;;29.38;38.80;101229.72;5012803;28;20469;-59
2023/06/11 06:03:03;;;;;;;6.85;5.05;;;;;;;29.48;38.97;101233.78;5014108;28;20021;-59
2023/06/11 06:05:29;;;;;;;7.68;4.53;;;;;;;29.55;39.22;101229.81;5014106;28;20053;-58
2023/06/11 06:07:54;;;;;;;6.47;4.63;;;;;;;29.63;38.89;101231.34;5013631;28;20112;-59
2023/06/11 06:10:19;;;;;;;5.60;4.68;;;;;;;29.74;39.55;101241.50;5013831;28;20053;-59
2023/06/11 06:12:45;;;;;;;5.90;4.85;;;;;;;29.85;38.79;101230.44;5013804;28;20034;-59
2023/06/11 06:15:10;;;;;;;8.23;5.55;;;;;;;29.96;39.07;101223.19;5013960;28;20025;-58
2023/06/11 06:17:36;;;;;;;6.93;4.28;;;;;;;30.06;38.62;101219.78;5013835;28;20021;-59
2023/06/11 06:20:01;;;;;;;9.07;4.72;;;;;;;30.15;38.58;101235.72;5013288;28;20061;-59
2023/06/11 06:22:26;;;;;;;6.47;4.45;;;;;;;30.21;39.01;101229.19;5013773;28;20557;-59
2023/06/11 06:24:52;;;;;;;6.70;4.53;;;;;;;30.35;38.60;101236.09;5013802;28;20493;-59
2023/06/11 06:27:17;;;;;;;8.32;4.80;;;;;;;30.43;38.55;101235.72;5013702;28;20389;-59
2023/06/11 06:29:42;;;;;;;4.63;4.22;;;;;;;30.55;38.18;101236.47;5013308;28;20033;-59
2023/06/11 06:32:08;;;;;;;6.07;4.63;;;;;;;30.61;38.45;101239.31;5013150;28;20077;-59
2023/06/11 06:34:34;;;;;;;5.35;4.38;;;;;;;30.70;38.11;101244.19;5013571;28;20046;-59
2023/06/11 06:37:00;;;;;;;6.05;4.68;;;;;;;30.82;37.46;101236.63;5013529;28;20101;-59
2023/06/11 06:39:26;;;;;;;7.22;4.03;;;;;;;30.90;37.77;101235.38;5013690;28;20465;-59
2023/06/11 06:41:51;;;;;;;5.32;4.40;;;;;;;30.99;37.57;101245.78;5013616;28;20053;-60
2023/06/11 06:44:16;;;;;;;5.40;4.30;;;;;;;31.10;37.16;101241.28;5013573;28;20075;-59
2023/06/11 06:46:42;;;;;;;7.93;4.10;;;;;;;31.17;37.27;101239.16;5013070;28;20074;-59
2023/06/11 06:49:07;;;;;;;6.68;4.30;;;;;;;31.25;37.25;101244.25;5013433;28;20025;-59
2023/06/11 06:51:32;;;;;;;5.40;4.90;;;;;;;31.36;36.95;101245.22;5013451;28;20058;-59
2023/06/11 06:53:58;;;;;;;6.32;4.63;;;;;;;31.47;37.04;101242.34;5013504;28;20126;-59
2023/06/11 06:56:24;;;;;;;5.68;4.78;;;;;;;31.44;36.51;101217.91;5013024;28;20418;-59
2023/06/11 06:58:50;;;;;;;7.32;4.93;;;;;;;31.64;36.36;101237.59;5013485;28;20036;-59
2023/06/11 07:01:15;;;;;;;5.68;4.07;;;;;;;31.74;36.25;101233.28;5013038;28;20037;-59
2023/06/11 07:03:41;;;;;;;5.68;4.03;;;;;;;31.82;35.83;101230.06;5012303;28;20072;-59
2023/06/11 07:06:07;;;;;;;6.47;4.95;;;;;;;31.87;36.52;101230.94;5013261;28;20401;-59
2023/06/11 07:08:33;;;;;;;7.00;4.60;;;;;;;31.98;35.74;101240.22;5013413;28;20030;-59
2023/06/11 07:10:58;;;;;;;6.57;4.50;;;;;;;32.10;36.36;101239.00;5013012;28;20374;-59
2023/06/11 07:13:24;;;;;;;4.65;4.18;;;;;;;32.22;35.65;101247.13;5013246;28;20037;-62
2023/06/11 07:15:50;;;;;;;5.20;4.07;;;;;;;32.33;35.44;101242.56;5013198;28;20100;-59
2023/06/11 07:18:16;;;;;;;11.20;4.82;;;;;;;32.41;35.62;101248.47;5013229;28;20362;-59
2023/06/11 07:20:41;;;;;;;9.05;4.60;;;;;;;32.50;35.27;101249.63;5013410;28;20028;-59
2023/06/11 07:23:07;;;;;;;8.35;4.40;;;;;;;32.65;34.86;101247.03;5013346;28;20384;-59
2023/06/11 07:25:33;;;;;;;5.32;4.53;;;;;;;32.77;35.45;101238.53;5013251;28;20389;-59
2023/06/11 07:28:02;;;;;;;7.10;4.55;;;;;;;32.90;35.38;101243.63;5013194;28;20446;-59
2023/06/11 07:30:28;;;;;;;4.93;3.75;;;;;;;32.90;35.17;101215.84;5013848;28;20389;-59
2023/06/11 07:32:53;;;;;;;4.53;4.13;;;;;;;33.14;35.00;101239.34;5016876;28;20088;-59
2023/06/11 07:35:22;;;;;;;5.63;4.45;;;;;;;33.30;35.54;101243.91;5016838;28;20421;-59
2023/06/11 07:37:48;;;;;;;6.07;4.53;;;;;;;33.43;34.11;101242.59;5016869;28;20018;-59
2023/06/11 07:40:15;;;;;;;4.60;4.20;;;;;;;33.52;35.11;101240.97;5016947;28;20497;-59
2023/06/11 07:42:41;;;;;;;5.32;4.82;;;;;;;33.69;33.94;101236.06;5016924;28;20045;-60
2023/06/11 07:45:07;;;;;;;7.40;4.38;;;;;;;33.85;33.99;101235.00;5016631;28;20037;-60
2023/06/11 07:47:32;;;;;;;5.07;4.45;;;;;;;33.98;34.03;101233.63;5017071;28;20026;-60
2023/06/11 07:49:58;;;;;;;5.05;4.30;;;;;;;34.11;34.07;101232.31;5016991;28;20056;-59
2023/06/11 07:52:23;;;;;;;4.88;4.38;;;;;;;34.25;34.39;101227.91;5016301;28;20570;-59
2023/06/11 07:54:49;;;;;;;4.68;4.05;;;;;;;34.40;34.34;101225.09;5016377;28;20026;-59
2023/06/11 07:57:14;;;;;;;5.45;4.07;;;;;;;34.51;34.00;101226.78;5016284;28;20022;-59
2023/06/11 07:59:42;;;;;;;5.68;4.35;;;;;;;34.52;33.06;101222.91;5016351;28;20456;-59
2023/06/11 08:02:08;;;;;;;6.80;4.25;;;;;;;34.76;33.56;101235.16;5016164;28;20018;-59
2023/06/11 08:04:33;;;;;;;5.13;4.30;;;;;;;34.75;32.85;101215.97;5016254;28;20037;-60
2023/06/11 08:06:59;;;;;;;4.65;4.20;;;;;;;34.87;33.52;101228.47;5016218;28;20029;-59
2023/06/11 08:09:24;;;;;;;4.30;3.85;;;;;;;34.89;32.79;101217.91;5016144;28;20026;-59
2023/06/11 08:11:49;;;;;;;5.95;4.40;;;;;;;35.07;32.80;101231.25;5015627;28;20470;-59
2023/06/11 08:14:18;;;;;;;6.97;4.75;;;;;;;35.17;32.68;101235.16;5016173;28;20034;-59
2023/06/11 08:16:47;;;;;;;4.47;4.07;;;;;;;35.19;32.34;101236.53;5015866;28;20030;-59
2023/06/11 08:19:13;;;;;;;5.28;4.07;;;;;;;35.20;32.16;101223.44;5016048;28;20175;-60
2023/06/11 08:21:38;;;;;;;4.13;3.70;;;;;;;35.40;32.69;101231.75;5015862;28;20025;-59
2023/06/11 08:24:05;;;;;;;5.75;4.40;;;;;;;35.57;32.94;101235.03;5016267;28;20021;-60
2023/06/11 08:26:30;;;;;;;6.03;4.32;;;;;;;35.63;32.50;101218.00;5016078;28;20040;-59
2023/06/11 08:28:56;;;;;;;5.60;4.30;;;;;;;35.88;32.41;101230.13;5015864;28;20098;-59
2023/06/11 08:31:21;;;;;;;6.40;4.40;;;;;;;36.00;32.67;101228.69;5015837;28;20029;-60
2023/06/11 08:33:47;;;;;;;5.40;4.75;;;;;;;36.06;32.19;101221.13;5015807;28;20021;-59
2023/06/11 08:36:12;;;;;;;4.20;3.88;;;;;;;36.11;31.77;101229.47;5015717;28;20473;-59
2023/06/11 08:38:37;;;;;;;10.15;4.07;;;;;;;36.22;31.94;101231.06;5015944;28;20097;-60
2023/06/11 08:41:03;;;;;;;4.10;3.70;;;;;;;36.33;31.59;101218.72;5015423;28;20030;-60
2023/06/11 08:43:28;;;;;;;5.22;4.35;;;;;;;36.43;31.63;101226.19;5031147;28;20117;-59
2023/06/11 08:45:55;;;;;;;5.18;4.55;;;;;;;36.45;31.47;101219.19;5015202;28;20291;-58
2023/06/11 08:48:21;;;;;;;8.98;4.03;;;;;;;36.55;31.41;101223.84;5015525;28;20033;-59
2023/06/11 08:50:49;;;;;;;6.20;4.32;;;;;;;36.64;30.87;101224.91;4997852;28;20141;-61
2023/06/11 08:53:15;;;;;;;3.90;3.53;;;;;;;36.75;31.23;101223.69;5015538;28;20022;-58
2023/06/11 08:55:41;;;;;;;4.32;3.45;;;;;;;36.86;31.15;101230.00;5015133;28;20171;-59
2023/06/11 08:58:11;;;;;;;4.32;3.53;;;;;;;36.95;30.62;101228.25;5015349;28;20370;-59
2023/06/11 09:00:37;;;;;;;5.18;3.65;;;;;;;37.00;30.75;101225.41;5014223;28;20411;-60
2023/06/11 09:03:03;;;;;;;6.72;3.80;;;;;;;37.05;30.43;101226.19;5015107;28;20030;-58
2023/06/11 09:05:30;;;;;;;4.70;3.75;;;;;;;37.11;30.82;101222.22;5015318;28;20075;-58
2023/06/11 09:07:57;;;;;;;8.27;3.85;;;;;;;37.09;30.69;101224.50;5014988;28;20054;-60
2023/06/11 09:10:22;;;;;;;4.97;3.63;;;;;;;37.13;30.75;101228.34;5013513;28;20068;-60
2023/06/11 09:12:48;;;;;;;5.43;3.45;;;;;;;37.15;30.51;101223.31;5015146;28;20026;-58
2023/06/11 09:15:14;;;;;;;4.65;3.83;;;;;;;37.21;30.68;101227.72;5014980;28;20120;-59
2023/06/11 09:17:41;;;;;;;6.80;3.90;;;;;;;37.30;29.96;101220.31;5015046;28;20105;-59
2023/06/11 09:20:08;;;;;;;4.07;3.60;;;;;;;37.38;30.00;101218.03;5014777;28;20113;-58
2023/06/11 09:22:36;;;;;;;8.43;4.95;;;;;;;37.51;30.46;101222.91;5014832;28;20492;-58
2023/06/11 09:25:09;;;;;;;3.75;3.38;;;;;;;37.40;29.66;101196.19;5015066;28;20034;-59
2023/06/11 09:27:39;;;;;;;3.95;3.40;;;;;;;37.64;29.62;101219.38;5014710;28;20032;-59
2023/06/11 09:30:18;;;;;;;5.30;3.30;;;;;;;37.68;29.75;101209.25;5014956;28;20028;-63
2023/06/11 09:32:45;;;;;;;3.55;3.25;;;;;;;37.84;28.87;101217.16;5014492;28;20100;-61
2023/06/11 09:35:11;;;;;;;5.03;3.20;;;;;;;37.89;29.63;101219.06;5014618;28;20083;-59
2023/06/11 09:37:44;;;;;;;4.15;3.75;;;;;;;37.91;29.40;101213.19;5014233;28;20033;-59
2023/06/11 09:40:11;;;;;;;6.68;3.55;;;;;;;37.98;29.06;101222.84;5014243;28;20034;-59
2023/06/11 09:42:37;;;;;;;4.40;3.28;;;;;;;38.04;28.94;101221.66;5014245;28;20394;-59
2023/06/11 09:45:03;;;;;;;5.57;3.50;;;;;;;38.11;29.22;101229.69;5013109;28;20053;-59
2023/06/11 09:47:30;;;;;;;4.07;3.40;;;;;;;38.18;28.72;101224.50;5014349;28;20474;-59
2023/06/11 09:49:57;;;;;;;5.13;3.55;;;;;;;38.11;28.07;101208.09;5014150;28;20111;-59
2023/06/11 09:52:23;;;;;;;5.38;3.80;;;;;;;38.25;28.53;101230.59;5014259;28;20036;-59
2023/06/11 09:54:49;;;;;;;3.88;3.35;;;;;;;38.27;28.25;101229.13;5013715;28;20021;-59
2023/06/11 09:57:15;;;;;;;3.97;3.58;;;;;;;38.31;29.01;101230.19;5013241;28;20097;-58
2023/06/11 09:59:41;;;;;;;5.35;3.78;;;;;;;38.45;28.02;101225.50;5014371;28;20030;-59
2023/06/11 10:02:07;;;;;;;4.30;3.70;;;;;;;38.54;28.94;101222.84;5014820;28;20152;-58
2023/06/11 10:04:33;;;;;;;5.88;3.67;;;;;;;38.66;28.63;101219.56;5014602;28;20076;-60
2023/06/11 10:06:58;;;;;;;5.00;3.55;;;;;;;38.77;28.58;101221.06;5014810;28;20084;-58
2023/06/11 10:09:24;;;;;;;4.28;3.88;;;;;;;38.85;27.86;101218.38;5012906;28;20022;-58
2023/06/11 10:11:50;;;;;;;5.93;3.40;;;;;;;38.95;28.34;101218.19;5013687;28;20048;-59
2023/06/11 10:14:20;;;;;;;5.03;4.05;;;;;;;39.06;28.23;101218.81;5013816;28;20026;-59
2023/06/11 10:16:49;;;;;;;4.72;3.65;;;;;;;39.12;28.13;101214.78;5013991;28;20043;-58
2023/06/11 10:19:15;;;;;;;4.45;3.33;;;;;;;39.19;28.15;101218.03;5014131;28;20045;-59
2023/06/11 10:21:49;;;;;;;3.40;2.90;;;;;;;39.22;27.95;101211.81;5012919;28;20141;-58
2023/06/11 10:24:24;;;;;;;3.00;2.80;;;;;;;39.34;26.89;101216.91;5012982;28;20102;-58
2023/06/11 10:27:11;;;;;;;3.50;2.85;;;;;;;39.43;27.06;101213.06;5013866;28;20037;-58
2023/06/11 10:29:40;;;;;;;7.07;2.95;;;;;;;39.54;27.26;101208.06;5013870;28;20033;-58
2023/06/11 10:32:15;;;;;;;2.95;2.72;;;;;;;39.63;27.16;101213.75;5013504;28;20506;-59
2023/06/11 10:34:41;;;;;;;4.28;3.08;;;;;;;39.70;26.39;101201.00;5013878;28;20172;-59
2023/06/11 10:37:07;;;;;;;4.30;2.92;;;;;;;39.70;26.41;101200.19;5013895;28;20109;-59
2023/06/11 10:39:32;;;;;;;3.00;2.80;;;;;;;39.69;26.70;101204.13;5013878;28;20105;-59
2023/06/11 10:42:02;;;;;;;4.28;3.45;;;;;;;39.72;25.97;101200.69;5013635;28;20359;-59
2023/06/11 10:44:29;;;;;;;4.03;2.80;;;;;;;39.83;26.61;101202.97;5013780;28;20084;-58
2023/06/11 10:46:55;;;;;;;3.50;3.20;;;;;;;39.97;26.61;101198.13;5013328;28;20053;-59
2023/06/11 10:49:27;;;;;;;3.60;2.83;;;;;;;40.15;26.17;101204.75;5012542;28;20386;-59
2023/06/11 10:51:53;;;;;;;2.97;2.78;;;;;;;40.20;26.32;101198.19;5013737;28;20037;-59
2023/06/11 10:54:26;;;;;;;2.78;2.47;;;;;;;40.35;25.54;101193.00;5012242;28;20088;-59
2023/06/11 10:56:52;;;;;;;2.40;2.20;;;;;;;40.50;25.84;101201.09;5013399;28;20056;-59
2023/06/11 10:59:18;;;;;;;3.17;2.60;;;;;;;40.62;25.63;101198.50;5013500;28;20018;-58
2023/06/11 11:01:43;;;;;;;2.65;2.45;;;;;;;40.80;25.36;101196.63;5013441;28;20041;-59
2023/06/11 11:04:08;;;;;;;2.70;2.50;;;;;;;40.90;25.30;101192.72;5013391;28;20052;-59
2023/06/11 11:06:38;;;;;;;5.13;2.75;;;;;;;41.04;25.00;101193.50;5016324;28;20033;-59
2023/06/11 11:09:03;;;;;;;3.33;2.88;;;;;;;41.13;24.81;101194.34;5017681;28;20026;-59
2023/06/11 11:11:29;;;;;;;4.03;2.40;;;;;;;41.24;24.56;101201.31;5016789;28;20087;-59
2023/06/11 11:13:59;;;;;;;5.28;2.38;;;;;;;41.35;24.61;101197.09;5017241;28;20026;-58
2023/06/11 11:16:25;;;;;;;5.25;3.35;;;;;;;41.44;24.49;101197.94;5015780;28;20025;-60
2023/06/11 11:18:51;;;;;;;2.60;2.40;;;;;;;41.64;24.97;101197.34;5017231;28;20045;-59
2023/06/11 11:21:18;;;;;;;5.72;3.13;;;;;;;41.74;24.63;101197.06;4999159;28;20021;-58